Terminal Aerodrome Forecast
Issued by NWS

Home | Current Version | Previous Version | Text Only | Print | Product List | Glossary On
Versions: 1 2 3 4 5 6 7 8 9 10 11 12 13 14 15 16 17 18 19 20 21 22 23 24 25 26 27
368
FTUS41 KPHI 240521
TAFMIV
TAF
KMIV 240521Z 2406/2506 11005KT 4SM BR OVC009
      TEMPO 2407/2410 2SM TSRA OVC004CB
     FM241000 13003KT 4SM -SHRA BR OVC008
     FM241200 VRB04KT 6SM BR OVC012
     FM241500 27006KT P6SM BKN025
     FM241700 26008KT P6SM BKN050
     FM242000 28004KT P6SM SCT040 BKN250=

USA.gov is the U.S. government's official web portal to all federal, state and local government web resources and services.